Time;durP1;ratioP1;P1;durP2;ratioP2;P2;SDS_P1;SDS_P2;PMS_P1;PMS_P2;Temp;Humidity;BMP_temperature;BMP_pressure;BME280_temperature;BME280_humidity;BME280_pressure;Samples;Min_cycle;Max_cycle;Signal;HPM_P1;HPM_P2
2022/04/28 00:01:03;;;;;;;10.07;5.68;;;;;;;10.60;100.00;100751.56;4468959;32;20096;-70
2022/04/28 00:03:31;;;;;;;7.68;5.95;;;;;;;10.57;100.00;100741.03;4469949;32;20096;-70
2022/04/28 00:05:59;;;;;;;7.68;5.30;;;;;;;10.53;100.00;100740.19;4469727;32;20108;-70
2022/04/28 00:08:26;;;;;;;8.05;5.28;;;;;;;10.53;100.00;100740.19;4469699;32;20413;-70
2022/04/28 00:10:53;;;;;;;11.12;5.12;;;;;;;10.55;100.00;100747.19;4469704;32;20095;-70
2022/04/28 00:13:20;;;;;;;5.47;4.78;;;;;;;10.53;100.00;100736.69;4469528;32;20123;-70
2022/04/28 00:15:47;;;;;;;7.90;5.20;;;;;;;10.52;100.00;100735.78;4469705;32;20092;-70
2022/04/28 00:18:15;;;;;;;10.82;6.87;;;;;;;10.56;100.00;100738.41;4469617;32;20088;-70
2022/04/28 00:20:42;;;;;;;8.43;6.05;;;;;;;10.56;100.00;100736.62;4469425;32;20122;-70
2022/04/28 00:23:09;;;;;;;8.18;5.32;;;;;;;10.55;100.00;100740.16;4469425;32;20097;-70
2022/04/28 00:25:36;;;;;;;9.13;5.28;;;;;;;10.54;100.00;100743.69;4469461;32;20096;-70
2022/04/28 00:28:03;;;;;;;7.65;5.35;;;;;;;10.56;100.00;100746.31;4455008;32;20115;-70
2022/04/28 00:30:31;;;;;;;6.53;5.00;;;;;;;10.54;100.00;100743.69;4469589;32;20145;-70
2022/04/28 00:32:58;;;;;;;6.70;4.80;;;;;;;10.52;100.00;100748.94;4469284;32;20171;-70
2022/04/28 00:35:25;;;;;;;7.57;5.72;;;;;;;10.57;100.00;100742.81;4469691;32;20085;-70
2022/04/28 00:37:53;;;;;;;9.10;5.82;;;;;;;10.53;100.00;100748.09;4469457;32;20492;-70
2022/04/28 00:40:20;;;;;;;6.53;5.30;;;;;;;10.52;100.00;100743.69;4469481;32;20468;-70
2022/04/28 00:42:47;;;;;;;7.03;5.50;;;;;;;10.54;100.00;100746.31;4469353;32;20097;-70
2022/04/28 00:45:14;;;;;;;6.97;5.40;;;;;;;10.46;100.00;100745.50;4469288;32;20113;-71
2022/04/28 00:50:40;;;;;;;5.47;4.85;;;;;;;10.41;100.00;100757.81;4469526;32;20112;-70
2022/04/28 00:53:12;;;;;;;5.32;4.72;;;;;;;10.45;100.00;100749.00;4469089;32;20158;-70
2022/04/28 00:55:41;;;;;;;9.55;5.05;;;;;;;10.41;100.00;100757.81;4469040;32;20427;-70
2022/04/28 00:58:10;;;;;;;8.63;5.50;;;;;;;10.43;100.00;100749.03;4469138;32;20092;-70
2022/04/28 01:00:39;;;;;;;12.88;7.70;;;;;;;10.44;100.00;100745.50;4469187;32;20513;-70
2022/04/28 01:03:10;;;;;;;16.95;8.95;;;;;;;10.45;100.00;100749.00;4468916;32;20092;-70
2022/04/28 01:05:39;;;;;;;20.37;11.50;;;;;;;10.47;100.00;100750.75;4469045;32;20639;-70
2022/04/28 01:08:07;;;;;;;17.12;9.90;;;;;;;10.43;100.00;100745.53;4469009;32;20145;-70
2022/04/28 01:10:35;;;;;;;16.58;8.90;;;;;;;10.36;100.00;100744.66;4468931;32;20123;-70
2022/04/28 01:13:04;;;;;;;27.58;14.60;;;;;;;10.32;100.00;100748.22;4468565;32;20131;-70
2022/04/28 01:15:42;;;;;;;41.80;20.23;;;;;;;10.32;100.00;100742.03;4456659;32;20120;-70
2022/04/28 01:18:10;;;;;;;34.03;17.67;;;;;;;10.36;100.00;100739.41;4471217;32;20458;-70
2022/04/28 01:20:37;;;;;;;20.80;12.02;;;;;;;10.35;100.00;100745.53;4471219;32;20155;-70
2022/04/28 01:23:05;;;;;;;19.83;11.43;;;;;;;10.39;100.00;100742.03;4470825;32;20124;-70
2022/04/28 01:25:33;;;;;;;22.70;12.73;;;;;;;10.35;100.00;100742.91;4471034;32;20108;-70
2022/04/28 01:28:00;;;;;;;29.87;15.32;;;;;;;10.36;100.00;100738.53;4471081;32;20092;-70
2022/04/28 01:30:28;;;;;;;21.60;12.55;;;;;;;10.39;100.00;100739.38;4470861;32;20493;-70
2022/04/28 01:32:57;;;;;;;31.45;17.33;;;;;;;10.41;100.00;100737.59;4470836;32;20088;-70
2022/04/28 01:35:25;;;;;;;27.37;13.52;;;;;;;10.43;100.00;100729.72;4470887;32;20112;-70
2022/04/28 01:37:53;;;;;;;25.48;15.80;;;;;;;10.42;100.00;100730.56;4470958;32;20125;-70
2022/04/28 01:40:21;;;;;;;24.25;14.65;;;;;;;10.45;100.00;100723.53;4470899;32;20532;-70
2022/04/28 01:42:49;;;;;;;19.08;12.90;;;;;;;10.45;100.00;100733.19;4470634;32;20097;-70
2022/04/28 01:45:16;;;;;;;20.77;11.90;;;;;;;10.45;100.00;100728.78;4470767;32;20536;-70
2022/04/28 01:47:45;;;;;;;14.27;9.50;;;;;;;10.47;100.00;100729.69;4470859;32;20202;-70
2022/04/28 01:50:12;;;;;;;11.57;7.65;;;;;;;10.44;100.00;100736.72;4470904;32;20088;-70
2022/04/28 01:55:26;;;;;;;8.55;6.62;;;;;;;10.40;100.00;100737.63;4470719;32;20440;-70
2022/04/28 01:57:55;;;;;;;11.70;7.25;;;;;;;10.41;100.00;100742.00;4470897;32;20367;-70
2022/04/28 02:00:23;;;;;;;7.18;5.53;;;;;;;10.38;100.00;100739.38;4470812;32;20439;-70
2022/04/28 02:02:51;;;;;;;8.05;5.95;;;;;;;10.38;100.00;100739.38;4470798;32;20173;-70
2022/04/28 02:05:21;;;;;;;10.38;6.65;;;;;;;10.35;100.00;100739.41;4470673;32;20122;-70
2022/04/28 02:07:48;;;;;;;6.65;5.30;;;;;;;10.33;100.00;100741.19;4470577;32;20077;-70
2022/04/28 02:10:16;;;;;;;8.45;5.15;;;;;;;10.35;100.00;100739.41;4470685;32;20096;-70
2022/04/28 02:12:43;;;;;;;6.87;4.97;;;;;;;10.39;100.00;100744.66;4470619;32;20649;-70
2022/04/28 02:15:14;;;;;;;7.47;5.22;;;;;;;10.41;100.00;100739.38;4470937;32;20087;-70
2022/04/28 02:17:45;;;;;;;6.80;5.37;;;;;;;10.46;100.00;100735.84;4470798;32;20165;-70
2022/04/28 02:20:12;;;;;;;5.90;4.93;;;;;;;10.33;100.00;100733.28;4470540;32;20080;-70
2022/04/28 02:22:40;;;;;;;8.27;4.82;;;;;;;10.34;100.00;100728.00;4470216;32;20569;-70
2022/04/28 02:25:08;;;;;;;8.80;5.82;;;;;;;10.28;100.00;100733.28;4470761;32;20096;-70
2022/04/28 02:27:35;;;;;;;9.73;5.03;;;;;;;10.20;100.00;100724.53;4470462;32;20119;-70
2022/04/28 02:30:05;;;;;;;8.27;5.12;;;;;;;10.18;100.00;100728.94;4470441;32;20138;-70
2022/04/28 02:33:08;;;;;;;7.35;4.78;;;;;;;10.09;100.00;100721.94;4470619;32;20452;-70
2022/04/28 02:35:20;;;;;;;5.87;4.35;;;;;;;10.11;100.00;100714.91;4470565;32;20100;-70
2022/04/28 02:37:48;;;;;;;8.18;4.93;;;;;;;10.09;100.00;100721.94;4470604;32;20435;-70
2022/04/28 02:40:16;;;;;;;11.68;5.43;;;;;;;10.01;100.00;100727.25;4470254;32;20097;-70
2022/04/28 02:42:44;;;;;;;6.43;4.95;;;;;;;10.02;100.00;100722.84;4470458;32;20093;-70
2022/04/28 02:45:11;;;;;;;6.62;4.68;;;;;;;10.00;100.00;100724.59;4470483;32;20836;-70
2022/04/28 02:47:40;;;;;;;7.15;5.50;;;;;;;9.97;100.00;100722.00;4470544;32;20152;-70
2022/04/28 02:50:11;;;;;;;6.95;4.85;;;;;;;9.90;100.00;100718.50;4470407;32;20088;-70
2022/04/28 02:52:40;;;;;;;6.18;4.68;;;;;;;9.88;100.00;100722.91;4470277;32;20171;-70
2022/04/28 02:55:08;;;;;;;7.57;4.82;;;;;;;9.85;100.00;100720.28;4470222;32;20171;-70
2022/04/28 02:57:36;;;;;;;8.80;4.90;;;;;;;9.90;100.00;100718.50;4470250;32;20092;-70
2022/04/28 03:00:05;;;;;;;7.30;5.30;;;;;;;9.88;100.00;100714.13;4470440;32;20423;-70
2022/04/28 03:02:33;;;;;;;6.90;4.57;;;;;;;9.87;100.00;100722.91;4470415;32;20096;-70
2022/04/28 03:05:03;;;;;;;6.37;5.03;;;;;;;9.83;100.00;100716.78;4470311;32;20116;-70
2022/04/28 03:13:03;;;;;;;8.57;5.45;;;;;;;9.60;100.00;100724.72;4466977;32;20096;-70
2022/04/28 03:15:31;;;;;;;6.55;4.80;;;;;;;9.60;100.00;100730.00;4467008;32;20134;-70
2022/04/28 03:17:58;;;;;;;8.32;4.75;;;;;;;9.63;100.00;100721.22;4470155;32;20101;-70
2022/04/28 03:20:27;;;;;;;8.57;5.43;;;;;;;9.67;100.00;100731.72;4470106;32;20096;-70
2022/04/28 03:22:55;;;;;;;6.70;4.97;;;;;;;9.67;100.00;100733.50;4470143;32;20440;-70
2022/04/28 03:25:22;;;;;;;5.72;5.03;;;;;;;9.63;100.00;100734.38;4470324;32;20607;-70
2022/04/28 03:27:49;;;;;;;6.90;5.37;;;;;;;9.60;100.00;100735.25;4470373;32;20088;-70
2022/04/28 03:30:17;;;;;;;9.07;5.78;;;;;;;9.59;100.00;100736.16;4470235;32;20412;-70
2022/04/28 03:32:46;;;;;;;8.30;4.90;;;;;;;9.59;100.00;100738.78;4470161;32;20100;-70
2022/04/28 03:35:14;;;;;;;7.20;5.15;;;;;;;9.57;100.00;100741.41;4468987;32;20498;-70
2022/04/28 03:37:44;;;;;;;7.22;5.53;;;;;;;9.56;100.00;100746.66;4469923;32;20239;-70
2022/04/28 03:40:11;;;;;;;7.90;5.37;;;;;;;9.56;100.00;100742.28;4469969;32;20440;-70
2022/04/28 03:42:40;;;;;;;7.95;5.32;;;;;;;9.56;100.00;100746.66;4469879;32;20611;-70
2022/04/28 03:45:08;;;;;;;9.00;5.93;;;;;;;9.61;100.00;100747.56;4470146;32;20524;-70
2022/04/28 03:47:38;;;;;;;10.45;5.97;;;;;;;9.55;100.00;100745.81;4470093;32;20510;-70
2022/04/28 03:50:06;;;;;;;6.82;5.15;;;;;;;9.52;100.00;100748.44;4469901;32;20123;-70
2022/04/28 03:52:34;;;;;;;8.90;5.55;;;;;;;9.54;100.00;100753.69;4470579;32;20468;-70
2022/04/28 03:55:02;;;;;;;7.87;5.30;;;;;;;9.52;100.00;100752.81;4469520;32;20448;-70
2022/04/28 03:57:29;;;;;;;7.85;5.80;;;;;;;9.53;100.00;100755.44;4470070;32;20485;-70
2022/04/28 03:59:57;;;;;;;9.30;5.53;;;;;;;9.58;100.00;100758.94;4469994;32;20430;-70
2022/04/28 04:02:27;;;;;;;8.43;5.62;;;;;;;9.65;100.00;100762.44;4469760;32;20100;-70
2022/04/28 04:04:55;;;;;;;7.50;5.28;;;;;;;9.72;100.00;100758.94;4469980;32;20104;-70
2022/04/28 04:07:22;;;;;;;8.10;5.97;;;;;;;9.75;100.00;100763.28;4459127;32;20155;-70
2022/04/28 04:09:54;;;;;;;9.32;5.85;;;;;;;9.82;100.00;100771.19;4454261;32;20146;-71
2022/04/28 04:12:23;;;;;;;8.32;5.72;;;;;;;9.81;100.00;100765.91;4454199;32;20448;-70
2022/04/28 04:14:52;;;;;;;8.40;5.40;;;;;;;9.85;100.00;100766.78;4454027;32;20104;-70
2022/04/28 04:17:20;;;;;;;7.22;5.80;;;;;;;9.86;100.00;100768.50;4454235;32;20089;-70
2022/04/28 04:19:48;;;;;;;7.50;5.72;;;;;;;9.90;100.00;100767.66;4453658;32;20423;-70
2022/04/28 04:22:16;;;;;;;9.20;6.07;;;;;;;9.93;100.00;100772.87;4453768;32;20175;-70
2022/04/28 04:24:43;;;;;;;7.10;5.35;;;;;;;10.05;100.00;100770.22;4454093;32;20173;-70
2022/04/28 04:27:11;;;;;;;9.73;4.95;;;;;;;10.10;100.00;100767.56;4454432;32;20107;-70
2022/04/28 04:29:41;;;;;;;7.47;4.97;;;;;;;10.08;100.00;100769.34;4454827;32;20084;-71
2022/04/28 04:32:26;;;;;;;8.13;5.10;;;;;;;10.16;100.00;100767.56;4452949;32;20093;-70
2022/04/28 04:34:54;;;;;;;9.85;4.97;;;;;;;10.20;100.00;100771.91;4464239;32;20115;-70
2022/04/28 04:37:21;;;;;;;5.55;4.75;;;;;;;10.18;100.00;100768.44;4470102;32;20088;-70
2022/04/28 04:39:49;;;;;;;6.53;4.97;;;;;;;10.20;100.00;100764.88;4463904;32;20149;-70
2022/04/28 04:42:16;;;;;;;5.43;4.70;;;;;;;10.15;100.00;100764.06;4469752;32;20108;-70
2022/04/28 04:44:43;;;;;;;6.30;5.03;;;;;;;10.10;100.00;100770.19;4470069;32;20126;-70
2022/04/28 04:47:12;;;;;;;22.98;10.40;;;;;;;10.04;100.00;100763.22;4470785;32;20456;-70
2022/04/28 04:49:40;;;;;;;22.75;10.45;;;;;;;10.08;100.00;100771.97;4470318;32;20504;-70
2022/04/28 04:52:07;;;;;;;28.40;12.02;;;;;;;10.14;100.00;100770.22;4455601;32;20093;-70
2022/04/28 04:54:35;;;;;;;52.47;18.95;;;;;;;10.14;100.00;100769.31;4455560;32;20142;-70
2022/04/28 04:57:03;;;;;;;43.60;16.70;;;;;;;10.17;100.00;100777.19;4455213;32;20077;-70
2022/04/28 04:59:30;;;;;;;26.45;12.27;;;;;;;10.15;100.00;100776.34;4455451;32;20424;-70
2022/04/28 05:01:57;;;;;;;34.33;13.25;;;;;;;10.29;100.00;100780.69;4455423;32;20566;-70
2022/04/28 05:04:29;;;;;;;36.17;13.80;;;;;;;10.33;100.00;100781.56;4455709;32;20092;-69
2022/04/28 05:06:59;;;;;;;40.05;15.38;;;;;;;10.34;100.00;100783.31;4459188;32;20069;-69
2022/04/28 05:09:29;;;;;;;52.78;19.20;;;;;;;10.53;100.00;100786.75;4464578;32;20111;-70
2022/04/28 05:11:57;;;;;;;33.65;12.32;;;;;;;10.53;99.88;100784.09;4471486;32;20123;-68
2022/04/28 05:14:25;;;;;;;22.98;11.35;;;;;;;10.65;98.29;100784.03;4471434;32;20104;-70
2022/04/28 05:16:53;;;;;;;23.87;11.75;;;;;;;10.70;98.38;100786.63;4472054;32;20084;-70
2022/04/28 05:19:21;;;;;;;10.82;7.12;;;;;;;10.75;98.86;100796.28;4471633;32;20084;-69
2022/04/28 05:21:51;;;;;;;13.90;7.97;;;;;;;10.80;98.04;100793.59;4471453;32;20154;-70
2022/04/28 05:24:22;;;;;;;14.32;8.48;;;;;;;10.81;99.06;100790.06;4471770;32;20135;-69
2022/04/28 05:26:52;;;;;;;15.40;9.15;;;;;;;10.81;98.40;100789.19;4466160;32;20160;-69
2022/04/28 05:29:22;;;;;;;15.95;7.85;;;;;;;10.89;97.97;100801.47;4455422;32;20093;-70
2022/04/28 05:31:51;;;;;;;13.07;6.22;;;;;;;10.89;97.87;100806.72;4454986;32;20140;-69
2022/04/28 05:34:18;;;;;;;7.50;6.28;;;;;;;10.90;98.05;100816.37;4455103;32;20458;-69
2022/04/28 05:36:46;;;;;;;8.70;5.95;;;;;;;10.94;98.00;100804.94;4454453;32;20073;-70
2022/04/28 05:39:20;;;;;;;12.95;7.45;;;;;;;10.99;97.64;100807.56;4454597;32;20092;-70
2022/04/28 05:41:47;;;;;;;9.25;5.90;;;;;;;11.05;99.06;100817.16;4455334;32;20104;-69
2022/04/28 05:47:01;;;;;;;7.60;5.47;;;;;;;11.16;98.04;100808.28;4454803;32;20783;-69
2022/04/28 05:49:28;;;;;;;7.50;5.72;;;;;;;11.28;99.00;100817.00;4454998;32;20183;-69
2022/04/28 05:51:55;;;;;;;7.32;5.53;;;;;;;11.37;97.96;100824.84;4455032;32;20152;-67
2022/04/28 05:54:23;;;;;;;12.05;7.68;;;;;;;11.51;96.24;100819.44;4454761;32;20093;-67
2022/04/28 05:56:51;;;;;;;14.65;9.52;;;;;;;11.58;96.18;100822.00;4454132;32;20080;-68
2022/04/28 05:59:19;;;;;;;14.60;8.45;;;;;;;11.64;94.49;100824.59;4455104;32;20530;-67
2022/04/28 06:01:47;;;;;;;11.10;7.32;;;;;;;11.55;94.83;100832.59;4455549;32;20108;-68
2022/04/28 06:04:16;;;;;;;11.32;7.15;;;;;;;11.64;94.84;100826.38;4455045;32;20139;-67
2022/04/28 06:06:44;;;;;;;11.73;7.93;;;;;;;11.52;95.56;100823.81;4454219;32;20084;-68
2022/04/28 06:09:16;;;;;;;12.65;7.90;;;;;;;11.52;95.84;100827.37;4454958;32;20093;-67
2022/04/28 06:11:44;;;;;;;14.25;7.32;;;;;;;11.58;95.49;100829.06;4454189;32;20149;-68
2022/04/28 06:14:11;;;;;;;9.77;6.72;;;;;;;11.60;95.20;100830.81;4454042;32;20134;-67
2022/04/28 06:16:47;;;;;;;8.53;6.43;;;;;;;11.70;95.25;100831.59;4454199;32;20114;-67
2022/04/28 06:19:17;;;;;;;10.00;6.62;;;;;;;11.83;95.16;100827.94;4454220;32;20244;-68
2022/04/28 06:21:48;;;;;;;10.05;6.75;;;;;;;11.85;94.40;100834.13;4454268;32;20787;-67
2022/04/28 06:24:15;;;;;;;8.70;5.80;;;;;;;11.92;94.68;100837.56;4454223;32;20545;-67
2022/04/28 06:26:42;;;;;;;8.98;6.57;;;;;;;11.94;92.96;100834.03;4455320;32;20466;-66
2022/04/28 06:29:09;;;;;;;8.10;6.20;;;;;;;12.00;93.00;100840.13;4455624;32;20209;-67
2022/04/28 06:31:38;;;;;;;8.63;5.15;;;;;;;12.07;90.94;100842.69;4454492;32;20156;-67
2022/04/28 06:34:08;;;;;;;11.57;6.25;;;;;;;12.12;90.71;100838.25;4454681;32;20134;-67
2022/04/28 06:36:36;;;;;;;7.82;5.87;;;;;;;12.26;90.01;100840.75;4454565;32;20077;-68
2022/04/28 06:39:04;;;;;;;7.80;5.90;;;;;;;12.22;88.84;100843.41;4454545;32;20131;-68
2022/04/28 06:41:31;;;;;;;8.82;5.97;;;;;;;12.26;88.54;100847.75;4454573;32;20093;-67
2022/04/28 06:43:58;;;;;;;7.93;5.95;;;;;;;12.22;89.16;100851.34;4454705;32;20511;-67
2022/04/28 06:46:31;;;;;;;7.87;5.85;;;;;;;12.16;88.71;100847.00;4454757;32;20409;-67
2022/04/28 06:49:03;;;;;;;6.50;5.28;;;;;;;12.19;88.88;100841.66;4456238;32;20093;-67
2022/04/28 06:51:35;;;;;;;7.50;6.25;;;;;;;12.36;88.41;100838.84;4455460;32;20112;-67
2022/04/28 06:54:03;;;;;;;9.73;6.45;;;;;;;12.42;88.36;100839.63;4455208;32;20169;-67
2022/04/28 06:56:31;;;;;;;7.18;5.65;;;;;;;12.50;86.55;100836.91;4456710;32;20225;-67
2022/04/28 06:59:01;;;;;;;9.32;6.78;;;;;;;12.50;85.90;100834.25;4455334;32;20101;-67
2022/04/28 07:01:29;;;;;;;9.98;6.30;;;;;;;12.42;86.85;100850.22;4458432;32;20097;-66
2022/04/28 07:04:07;;;;;;;8.40;6.65;;;;;;;12.40;85.58;100851.13;4461595;32;20126;-67
2022/04/28 07:06:35;;;;;;;10.70;6.03;;;;;;;12.40;84.66;100852.03;4461711;32;20089;-67
2022/04/28 07:09:02;;;;;;;8.02;6.22;;;;;;;12.37;85.13;100854.69;4454556;32;20118;-67
2022/04/28 07:11:30;;;;;;;9.30;6.95;;;;;;;12.34;85.32;100848.56;4454338;32;20110;-68
2022/04/28 07:13:58;;;;;;;8.40;5.90;;;;;;;12.41;84.83;100848.47;4454224;32;20119;-68
2022/04/28 07:16:30;;;;;;;15.85;7.72;;;;;;;12.39;84.99;100852.88;4454453;32;20171;-68
2022/04/28 07:19:03;;;;;;;20.60;7.45;;;;;;;12.42;84.88;100860.78;4455087;32;20113;-67
2022/04/28 07:21:31;;;;;;;12.55;6.35;;;;;;;12.62;84.05;100862.31;4455190;32;20097;-67
2022/04/28 07:23:58;;;;;;;9.52;6.10;;;;;;;12.67;82.54;100857.84;4458546;32;20724;-68
2022/04/28 07:26:26;;;;;;;10.32;6.28;;;;;;;12.81;82.76;100860.31;4461270;32;20441;-67
2022/04/28 07:28:53;;;;;;;7.30;5.12;;;;;;;12.97;80.91;100860.94;4461133;32;20092;-67
2022/04/28 07:31:24;;;;;;;9.98;5.57;;;;;;;12.96;79.78;100869.78;4462900;32;20089;-67
2022/04/28 07:33:58;;;;;;;10.88;6.57;;;;;;;12.95;80.76;100865.41;4458795;32;20538;-67
2022/04/28 07:36:30;;;;;;;7.47;4.90;;;;;;;13.10;81.69;100875.75;4455044;32;20088;-68
2022/04/28 07:39:19;;;;;;;8.45;5.85;;;;;;;13.23;78.41;100880.00;4455018;32;20141;-67
2022/04/28 07:41:49;;;;;;;7.05;5.68;;;;;;;13.20;77.86;100884.44;4455137;32;20180;-67
2022/04/28 07:44:16;;;;;;;6.32;4.65;;;;;;;13.28;78.01;100887.87;4454974;32;20783;-67
2022/04/28 07:46:43;;;;;;;6.50;4.97;;;;;;;13.29;77.45;100893.16;4454904;32;20084;-67
2022/04/28 07:49:11;;;;;;;7.78;5.37;;;;;;;13.24;77.34;100887.06;4455101;32;20120;-67
2022/04/28 07:51:38;;;;;;;14.00;6.47;;;;;;;13.40;76.96;100893.00;4457301;32;20154;-67
2022/04/28 07:54:07;;;;;;;6.28;5.30;;;;;;;13.56;75.97;100891.84;4464657;32;20142;-68
2022/04/28 07:56:34;;;;;;;10.85;6.53;;;;;;;13.77;76.06;100895.91;4458772;32;20158;-66
2022/04/28 07:59:01;;;;;;;12.75;6.72;;;;;;;13.88;74.09;100895.72;4454550;32;20153;-67
2022/04/28 08:01:49;;;;;;;12.05;7.75;;;;;;;13.98;75.85;100899.09;4466116;32;20135;-67
2022/04/28 08:04:17;;;;;;;18.77;9.15;;;;;;;14.17;73.79;100889.94;4460925;32;20089;-67
2022/04/28 08:06:46;;;;;;;18.85;8.82;;;;;;;14.31;74.66;100898.50;4458928;32;20127;-68
2022/04/28 08:09:13;;;;;;;19.42;7.62;;;;;;;14.41;73.17;100895.66;4459114;32;20105;-68
2022/04/28 08:11:42;;;;;;;17.25;7.55;;;;;;;14.55;73.13;100890.97;4462613;32;20902;-67
2022/04/28 08:14:09;;;;;;;18.33;6.35;;;;;;;14.62;72.99;100897.91;4461380;32;20130;-67
2022/04/28 08:16:37;;;;;;;7.80;4.97;;;;;;;14.73;71.24;100901.22;4461029;32;20142;-68
2022/04/28 08:19:05;;;;;;;5.97;3.50;;;;;;;14.89;72.16;100898.25;4464584;32;20145;-67
2022/04/28 08:21:34;;;;;;;5.93;3.45;;;;;;;15.22;69.55;100901.94;4469920;32;20165;-67
2022/04/28 08:24:01;;;;;;;2.87;2.60;;;;;;;15.55;67.04;100900.28;4470240;32;20533;-67
2022/04/28 08:26:29;;;;;;;4.57;2.53;;;;;;;16.00;62.96;100897.41;4470303;32;20156;-67
2022/04/28 08:28:56;;;;;;;3.97;2.70;;;;;;;16.39;63.16;100908.75;4470120;32;20167;-68
2022/04/28 08:31:24;;;;;;;4.20;2.65;;;;;;;16.94;62.26;100896.56;4470270;32;20143;-67
2022/04/28 08:33:52;;;;;;;2.67;2.33;;;;;;;17.39;59.31;100897.87;4470345;32;20092;-68
2022/04/28 08:36:20;;;;;;;4.10;2.87;;;;;;;17.58;56.56;100907.00;4469692;32;20115;-67
2022/04/28 08:38:48;;;;;;;3.25;2.97;;;;;;;17.49;58.21;100909.97;4469620;32;20709;-69
2022/04/28 08:41:31;;;;;;;4.53;3.33;;;;;;;17.19;59.55;100909.13;4469956;32;20124;-68
2022/04/28 08:44:04;;;;;;;6.90;3.47;;;;;;;16.96;60.01;100913.38;4470160;32;20104;-67
2022/04/28 08:46:50;;;;;;;6.72;3.72;;;;;;;16.71;60.67;100918.50;4469947;32;20084;-67
2022/04/28 08:49:20;;;;;;;4.00;3.47;;;;;;;16.52;61.37;100921.72;4458661;32;20096;-67
2022/04/28 08:51:55;;;;;;;4.40;3.83;;;;;;;16.26;62.54;100915.34;4458941;32;20127;-67
2022/04/28 08:54:25;;;;;;;7.30;4.22;;;;;;;16.25;63.39;100914.47;4461418;32;20483;-68
2022/04/28 08:56:55;;;;;;;4.22;3.83;;;;;;;16.39;61.85;100924.72;4461058;32;20197;-68
2022/04/28 08:59:23;;;;;;;4.82;3.72;;;;;;;16.69;62.07;100917.69;4460280;32;20091;-68
2022/04/28 09:01:51;;;;;;;6.35;3.83;;;;;;;16.74;62.54;100930.88;4460253;32;20100;-68
2022/04/28 09:04:25;;;;;;;3.55;3.00;;;;;;;17.08;59.55;100917.44;4458354;32;20088;-68
2022/04/28 09:06:58;;;;;;;4.70;3.53;;;;;;;17.25;57.45;100918.75;4461021;32;20068;-68
2022/04/28 09:09:32;;;;;;;3.62;3.33;;;;;;;17.36;57.26;100919.28;4457120;32;20194;-69
2022/04/28 09:12:10;;;;;;;3.62;3.33;;;;;;;17.62;57.95;100921.97;4461646;32;20085;-69
2022/04/28 09:14:46;;;;;;;4.10;3.70;;;;;;;18.15;56.04;100921.13;4438261;32;20511;-69
2022/04/28 09:17:13;;;;;;;7.12;3.37;;;;;;;18.42;55.77;100913.94;4453043;32;20115;-68
2022/04/28 09:19:40;;;;;;;3.62;3.33;;;;;;;18.23;52.71;100913.72;4452806;32;20480;-69
2022/04/28 09:22:13;;;;;;;3.67;3.30;;;;;;;18.60;54.21;100912.41;4453822;32;20173;-69
2022/04/28 09:24:44;;;;;;;3.60;3.30;;;;;;;18.67;53.29;100919.25;4453351;32;20199;-69
2022/04/28 09:27:14;;;;;;;7.55;3.80;;;;;;;18.50;51.85;100916.34;4454022;32;20110;-69
2022/04/28 09:29:43;;;;;;;9.13;4.03;;;;;;;18.60;52.15;100918.63;4453851;32;20097;-69
2022/04/28 09:32:15;;;;;;;6.90;4.90;;;;;;;18.60;55.27;100923.97;4452216;32;20469;-69
2022/04/28 09:35:08;;;;;;;6.97;4.12;;;;;;;18.50;59.15;100919.00;4454860;32;20096;-69
2022/04/28 09:37:39;;;;;;;6.28;4.45;;;;;;;18.97;56.32;100921.75;4454930;32;20089;-69
2022/04/28 09:42:57;;;;;;;7.70;4.37;;;;;;;19.16;54.51;100924.59;4454874;32;20773;-69
2022/04/28 09:45:26;;;;;;;4.65;4.22;;;;;;;19.50;53.01;100922.31;4456903;32;20728;-69
2022/04/28 09:48:03;;;;;;;6.22;4.32;;;;;;;19.02;53.12;100923.31;4459900;32;20123;-69
2022/04/28 09:50:31;;;;;;;4.25;3.85;;;;;;;18.97;55.07;100916.41;4459582;32;20112;-69
2022/04/28 09:53:05;;;;;;;3.97;3.40;;;;;;;18.86;52.90;100922.16;4454974;32;20169;-69
2022/04/28 09:55:39;;;;;;;4.55;3.40;;;;;;;19.25;53.59;100934.91;4455150;32;20081;-69
2022/04/28 09:58:09;;;;;;;7.28;4.47;;;;;;;19.35;51.38;100931.81;4455328;32;20089;-69
2022/04/28 10:00:37;;;;;;;4.35;3.92;;;;;;;19.32;51.90;100925.72;4455883;32;20858;-68
2022/04/28 10:03:08;;;;;;;5.10;3.12;;;;;;;19.52;51.87;100931.16;4456070;32;20162;-69
2022/04/28 10:05:36;;;;;;;6.20;3.60;;;;;;;19.44;50.08;100930.59;4456244;32;20101;-68
2022/04/28 10:08:06;;;;;;;3.80;3.47;;;;;;;19.45;48.85;100928.78;4455818;32;20093;-68
2022/04/28 10:10:35;;;;;;;3.85;3.55;;;;;;;19.80;48.55;100935.41;4455851;32;20151;-69
2022/04/28 10:13:05;;;;;;;4.40;4.03;;;;;;;19.81;49.92;100931.78;4455919;32;20177;-69
2022/04/28 10:15:33;;;;;;;6.40;4.20;;;;;;;19.97;50.51;100927.53;4455535;32;20787;-68
2022/04/28 10:18:09;;;;;;;5.37;4.05;;;;;;;19.94;48.66;100929.47;4460460;32;20427;-68
2022/04/28 10:20:39;;;;;;;;;;;;;;;19.92;49.43;100929.53;4466960;32;20153;-68
2022/04/28 10:34:59;;;;;;;3.67;2.87;;;;;;;20.00;44.52;100922.06;4471272;32;20104;-69
2022/04/28 10:37:35;;;;;;;3.17;2.87;;;;;;;20.24;46.80;100928.16;4470875;32;20158;-68
2022/04/28 10:40:04;;;;;;;4.00;3.20;;;;;;;20.23;43.19;100928.22;4466516;32;20089;-69
2022/04/28 10:42:31;;;;;;;4.40;3.10;;;;;;;20.61;43.72;100925.72;4464724;32;20104;-69
2022/04/28 10:45:00;;;;;;;16.73;2.85;;;;;;;20.79;42.57;100921.34;4469910;32;20092;-69
2022/04/28 10:47:34;;;;;;;2.67;2.47;;;;;;;20.52;43.17;100922.50;4470902;32;20131;-69
2022/04/28 10:50:03;;;;;;;3.85;2.70;;;;;;;20.54;42.47;100927.78;4454753;32;20073;-68
2022/04/28 10:52:34;;;;;;;3.78;2.55;;;;;;;21.00;43.78;100917.66;4460695;32;20172;-68
2022/04/28 10:55:02;;;;;;;2.60;2.40;;;;;;;21.40;42.02;100924.69;4458610;32;20116;-68
2022/04/28 10:57:32;;;;;;;4.95;2.42;;;;;;;21.22;41.74;100920.19;4457904;32;20092;-68
2022/04/28 11:00:00;;;;;;;5.57;2.62;;;;;;;21.28;41.06;100919.03;4460921;32;20156;-69
2022/04/28 11:02:28;;;;;;;3.87;3.00;;;;;;;21.21;43.66;100913.09;4469942;32;20101;-68
2022/04/28 11:05:23;;;;;;;3.70;3.10;;;;;;;21.00;43.32;100917.66;4469276;32;20164;-68
2022/04/28 11:07:53;;;;;;;4.35;2.90;;;;;;;20.85;43.56;100916.56;4460216;32;20176;-70
2022/04/28 11:10:20;;;;;;;2.90;2.70;;;;;;;20.95;42.20;100917.88;4457978;32;20081;-69
2022/04/28 11:12:48;;;;;;;5.80;2.62;;;;;;;21.15;42.67;100919.59;4460298;32;20112;-68
2022/04/28 11:15:16;;;;;;;3.17;2.90;;;;;;;20.90;42.16;100921.72;4467089;32;20469;-68
2022/04/28 11:17:44;;;;;;;5.35;4.00;;;;;;;20.91;43.21;100916.25;4468900;32;20568;-68
2022/04/28 11:20:14;;;;;;;4.80;4.10;;;;;;;20.41;45.25;100929.22;4456497;32;20425;-68
2022/04/28 11:22:43;;;;;;;4.00;3.60;;;;;;;20.25;44.59;100929.06;4451360;32;20161;-68
2022/04/28 11:25:15;;;;;;;4.95;3.45;;;;;;;21.21;44.87;100923.81;4455506;32;20100;-68
2022/04/28 11:27:48;;;;;;;4.12;3.83;;;;;;;22.59;41.05;100925.00;4455296;32;20112;-68
2022/04/28 11:30:22;;;;;;;5.53;3.60;;;;;;;22.36;40.94;100927.03;4454819;32;20444;-68
2022/04/28 11:32:56;;;;;;;5.12;3.62;;;;;;;21.42;41.61;100927.31;4460052;32;20109;-68
2022/04/28 11:35:35;;;;;;;4.32;3.60;;;;;;;21.27;44.47;100928.87;4446621;32;20099;-68
2022/04/28 11:38:03;;;;;;;7.18;3.80;;;;;;;22.33;41.77;100927.25;4458956;32;20183;-68
2022/04/28 11:40:33;;;;;;;12.75;3.83;;;;;;;22.92;39.32;100938.44;4461420;32;20101;-69
2022/04/28 11:43:03;;;;;;;3.60;3.30;;;;;;;23.46;38.31;100935.44;4461421;32;20097;-68
2022/04/28 11:45:32;;;;;;;3.95;2.83;;;;;;;25.05;35.87;100939.38;4458747;32;20104;-68
2022/04/28 11:48:01;;;;;;;9.70;3.53;;;;;;;25.35;35.39;100941.13;4457336;32;20131;-68
2022/04/28 11:50:34;;;;;;;3.62;3.35;;;;;;;24.55;34.97;100944.28;4460995;32;20133;-68
2022/04/28 11:53:05;;;;;;;3.78;3.40;;;;;;;23.92;36.37;100944.44;4463932;32;20107;-68
2022/04/28 11:55:35;;;;;;;3.30;3.00;;;;;;;23.00;37.97;100940.69;4468547;32;20276;-68
2022/04/28 11:58:05;;;;;;;5.47;3.30;;;;;;;22.33;38.39;100946.03;4455259;32;20100;-68